createdAt,value
2018-05-31T00:00:22.597Z,0
2018-05-31T00:01:24.600Z,0
2018-05-31T00:02:26.605Z,0
2018-05-31T00:03:28.610Z,0
2018-05-31T00:04:31.304Z,0
2018-05-31T00:05:33.312Z,0
2018-05-31T00:06:36.068Z,0
2018-05-31T00:07:38.072Z,0
2018-05-31T00:08:40.069Z,0
2018-05-31T00:09:42.080Z,0
2018-05-31T00:10:44.081Z,0
2018-05-31T00:11:46.086Z,0
2018-05-31T00:12:48.092Z,0
2018-05-31T00:13:50.090Z,0
2018-05-31T00:14:52.106Z,0
2018-05-31T00:15:54.100Z,0
2018-05-31T00:16:56.110Z,0
2018-05-31T00:17:58.113Z,0
2018-05-31T00:19:00.115Z,0
2018-05-31T00:20:02.129Z,0
2018-05-31T00:21:04.138Z,0
2018-05-31T00:22:06.126Z,0
2018-05-31T00:23:08.133Z,0
2018-05-31T00:24:10.139Z,0
2018-05-31T00:25:12.149Z,0
2018-05-31T00:26:14.145Z,0
2018-05-31T00:27:16.149Z,0
2018-05-31T00:28:18.155Z,0
2018-05-31T00:29:20.154Z,0
2018-05-31T00:30:22.151Z,0
2018-05-31T00:31:24.160Z,0
2018-05-31T00:32:26.163Z,0
2018-05-31T00:33:28.161Z,0
2018-05-31T00:34:30.162Z,0
2018-05-31T00:35:32.165Z,0
2018-05-31T00:36:34.172Z,0
2018-05-31T00:37:36.169Z,0
2018-05-31T00:38:38.178Z,0
2018-05-31T00:39:40.468Z,0
2018-05-31T00:40:42.461Z,0
2018-05-31T00:41:44.471Z,0
2018-05-31T00:42:46.854Z,0
2018-05-31T00:43:48.862Z,0
2018-05-31T00:44:50.861Z,0
2018-05-31T00:45:52.858Z,0
2018-05-31T00:46:54.875Z,0
2018-05-31T00:47:57.161Z,0
2018-05-31T00:48:59.162Z,0
2018-05-31T00:50:01.171Z,0
2018-05-31T00:51:03.170Z,0
2018-05-31T00:52:05.168Z,0
2018-05-31T00:53:07.174Z,0
2018-05-31T00:54:09.175Z,0
2018-05-31T00:55:11.578Z,0
2018-05-31T00:56:13.578Z,0
2018-05-31T00:57:15.579Z,0
2018-05-31T00:58:17.589Z,0
2018-05-31T00:59:20.128Z,0
2018-05-31T01:00:22.124Z,0
2018-05-31T01:01:24.139Z,0
2018-05-31T01:02:26.416Z,0
2018-05-31T01:03:28.419Z,0
2018-05-31T01:04:30.431Z,0
2018-05-31T01:05:32.431Z,0
2018-05-31T01:06:34.440Z,0
2018-05-31T01:07:36.825Z,0
2018-05-31T01:08:38.832Z,0
2018-05-31T01:09:40.837Z,0
2018-05-31T01:10:42.837Z,0
2018-05-31T01:11:44.851Z,0
2018-05-31T01:12:46.851Z,0
2018-05-31T01:13:49.157Z,0
2018-05-31T01:14:51.477Z,0
2018-05-31T01:15:53.483Z,0
2018-05-31T01:16:55.873Z,0
2018-05-31T01:17:57.881Z,0
2018-05-31T01:19:00.269Z,0
2018-05-31T01:20:02.275Z,0
2018-05-31T01:21:04.270Z,0
2018-05-31T01:22:06.573Z,0
2018-05-31T01:23:08.583Z,0
2018-05-31T01:24:10.597Z,0
2018-05-31T01:25:12.603Z,0
2018-05-31T01:26:16.064Z,0
2018-05-31T01:27:18.069Z,0
2018-05-31T01:28:20.067Z,0
2018-05-31T01:29:22.060Z,0
2018-05-31T01:30:24.466Z,0
2018-05-31T01:31:26.474Z,0
2018-05-31T01:32:28.466Z,0
2018-05-31T01:33:30.479Z,0
2018-05-31T01:34:32.780Z,0
2018-05-31T01:35:34.784Z,0
2018-05-31T01:36:36.803Z,0
2018-05-31T01:37:39.083Z,0
2018-05-31T01:38:41.085Z,0
2018-05-31T01:39:43.473Z,0
2018-05-31T01:40:45.479Z,0
2018-05-31T01:41:47.488Z,0
2018-05-31T01:42:49.476Z,0
2018-05-31T01:43:51.485Z,0
2018-05-31T01:44:53.492Z,0
2018-05-31T01:45:55.495Z,0
2018-05-31T01:46:57.504Z,0
2018-05-31T01:47:59.514Z,0
2018-05-31T01:49:01.825Z,0
2018-05-31T01:50:03.820Z,0
2018-05-31T01:51:05.823Z,0
2018-05-31T01:52:08.219Z,0
2018-05-31T01:53:10.218Z,0
2018-05-31T01:54:12.220Z,0
2018-05-31T01:55:14.522Z,0
2018-05-31T01:56:16.514Z,0
2018-05-31T01:57:18.516Z,0
2018-05-31T01:58:20.520Z,0
2018-05-31T01:59:22.523Z,0
2018-05-31T02:00:24.826Z,0
2018-05-31T02:01:27.134Z,0
2018-05-31T02:02:29.148Z,0
2018-05-31T02:03:31.152Z,0
2018-05-31T02:04:33.150Z,4
2018-05-31T02:05:35.159Z,4
2018-05-31T02:06:37.153Z,0
2018-05-31T02:07:39.157Z,0
2018-05-31T02:08:41.158Z,0
2018-05-31T02:09:43.156Z,4
2018-05-31T02:10:45.179Z,4
2018-05-31T02:11:47.173Z,0
2018-05-31T02:12:49.281Z,4
2018-05-31T02:13:51.430Z,4
2018-05-31T02:14:53.442Z,4
2018-05-31T02:15:55.435Z,8
2018-05-31T02:16:57.828Z,8
2018-05-31T02:18:00.215Z,8
2018-05-31T02:19:02.213Z,8
2018-05-31T02:20:04.501Z,12
2018-05-31T02:21:06.837Z,12
2018-05-31T02:22:08.840Z,16
2018-05-31T02:23:10.848Z,16
2018-05-31T02:24:12.839Z,20
2018-05-31T02:25:15.157Z,20
2018-05-31T02:26:17.153Z,24
2018-05-31T02:27:19.150Z,24
2018-05-31T02:28:21.160Z,28
2018-05-31T02:29:23.161Z,32
2018-05-31T02:30:25.163Z,36
2018-05-31T02:31:27.764Z,44
2018-05-31T02:32:29.766Z,48
2018-05-31T02:33:31.777Z,52
2018-05-31T02:34:34.348Z,56
2018-05-31T02:35:36.352Z,64
2018-05-31T02:36:38.351Z,72
2018-05-31T02:37:40.361Z,80
2018-05-31T02:38:42.359Z,88
2018-05-31T02:39:44.361Z,96
2018-05-31T02:40:46.359Z,108
2018-05-31T02:41:48.741Z,120
2018-05-31T02:42:51.126Z,128
2018-05-31T02:43:53.135Z,144
2018-05-31T02:44:55.135Z,156
2018-05-31T02:45:57.130Z,168
2018-05-31T02:46:59.132Z,184
2018-05-31T02:48:01.140Z,200
2018-05-31T02:49:03.449Z,216
2018-05-31T02:50:05.458Z,232
2018-05-31T02:51:07.448Z,248
2018-05-31T02:52:09.841Z,268
2018-05-31T02:53:11.850Z,288
2018-05-31T02:54:13.852Z,312
2018-05-31T02:55:15.844Z,332
2018-05-31T02:56:17.845Z,356
2018-05-31T02:57:19.852Z,380
2018-05-31T02:58:21.858Z,404
2018-05-31T02:59:23.854Z,428
2018-05-31T03:00:25.871Z,456
2018-05-31T03:01:27.866Z,484
2018-05-31T03:02:29.866Z,512
2018-05-31T03:03:31.868Z,540
2018-05-31T03:04:33.870Z,572
2018-05-31T03:05:35.873Z,600
2018-05-31T03:06:38.256Z,632
2018-05-31T03:07:40.250Z,664
2018-05-31T03:08:42.268Z,696
2018-05-31T03:09:44.560Z,732
2018-05-31T03:10:46.548Z,764
2018-05-31T03:11:49.836Z,800
2018-05-31T03:12:51.831Z,832
2018-05-31T03:13:54.219Z,872
2018-05-31T03:14:56.605Z,908
2018-05-31T03:15:58.607Z,948
2018-05-31T03:17:00.613Z,988
2018-05-31T03:18:02.604Z,1024
2018-05-31T03:19:04.624Z,1064
2018-05-31T03:20:06.911Z,1108
2018-05-31T03:21:08.915Z,1152
2018-05-31T03:22:11.202Z,1196
2018-05-31T03:23:13.202Z,1244
2018-05-31T03:24:15.208Z,1288
2018-05-31T03:25:17.200Z,1336
2018-05-31T03:26:19.201Z,1380
2018-05-31T03:27:21.808Z,1432
2018-05-31T03:28:23.812Z,1480
2018-05-31T03:29:25.820Z,1524
2018-05-31T03:30:28.122Z,1572
2018-05-31T03:31:30.501Z,1616
2018-05-31T03:32:32.882Z,1664
2018-05-31T03:33:35.193Z,1708
2018-05-31T03:34:37.192Z,1760
2018-05-31T03:35:39.185Z,1812
2018-05-31T03:36:41.192Z,1860
2018-05-31T03:37:43.186Z,1904
2018-05-31T03:38:45.479Z,1952
2018-05-31T03:39:47.855Z,1996
2018-05-31T03:40:49.871Z,2040
2018-05-31T03:41:51.869Z,2084
2018-05-31T03:42:54.255Z,2132
2018-05-31T03:43:56.261Z,2172
2018-05-31T03:44:58.263Z,2212
2018-05-31T03:46:00.265Z,2256
2018-05-31T03:47:02.260Z,2300
2018-05-31T03:48:04.261Z,2344
2018-05-31T03:49:06.270Z,2384
2018-05-31T03:50:08.985Z,2424
2018-05-31T03:51:11.284Z,2468
2018-05-31T03:52:13.286Z,2500
2018-05-31T03:53:15.283Z,2540
2018-05-31T03:54:17.281Z,2572
2018-05-31T03:55:19.289Z,2604
2018-05-31T03:56:21.291Z,2636
2018-05-31T03:57:23.294Z,2672
2018-05-31T03:58:25.302Z,2712
2018-05-31T03:59:27.312Z,2748
2018-05-31T04:00:29.309Z,2776
2018-05-31T04:01:31.324Z,2808
2018-05-31T04:02:33.310Z,2836
2018-05-31T04:03:35.315Z,2868
2018-05-31T04:04:37.320Z,2904
2018-05-31T04:05:39.644Z,2948
2018-05-31T04:06:41.936Z,2988
2018-05-31T04:07:44.226Z,3028
2018-05-31T04:08:46.519Z,3068
2018-05-31T04:09:48.827Z,3100
2018-05-31T04:10:51.218Z,3136
2018-05-31T04:11:53.213Z,3184
2018-05-31T04:12:55.219Z,3232
2018-05-31T04:13:57.552Z,3280
2018-05-31T04:14:59.539Z,3320
2018-05-31T04:16:01.537Z,3364
2018-05-31T04:17:03.533Z,3400
2018-05-31T04:18:05.535Z,3436
2018-05-31T04:19:07.849Z,3468
2018-05-31T04:20:09.840Z,3516
2018-05-31T04:21:12.178Z,3556
2018-05-31T04:22:14.179Z,3596
2018-05-31T04:23:16.170Z,3640
2018-05-31T04:24:18.181Z,3676
2018-05-31T04:25:20.178Z,3716
2018-05-31T04:26:22.493Z,3748
2018-05-31T04:27:24.498Z,3780
2018-05-31T04:28:26.498Z,3808
2018-05-31T04:29:28.500Z,3844
2018-05-31T04:30:30.493Z,3872
2018-05-31T04:31:32.789Z,3896
2018-05-31T04:32:34.811Z,3928
2018-05-31T04:33:37.204Z,3964
2018-05-31T04:34:39.899Z,3996
2018-05-31T04:35:41.899Z,4024
2018-05-31T04:36:44.284Z,4060
2018-05-31T04:37:46.599Z,4088
2018-05-31T04:38:48.599Z,4112
2018-05-31T04:39:50.611Z,4132
2018-05-31T04:40:52.917Z,4156
2018-05-31T04:41:55.597Z,4188
2018-05-31T04:42:57.601Z,4220
2018-05-31T04:43:59.598Z,4252
2018-05-31T04:45:01.611Z,4292
2018-05-31T04:46:03.610Z,4324
2018-05-31T04:47:05.624Z,4352
2018-05-31T04:48:07.629Z,4376
2018-05-31T04:49:09.959Z,4396
2018-05-31T04:50:12.247Z,4416
2018-05-31T04:51:14.642Z,4436
2018-05-31T04:52:16.640Z,4460
2018-05-31T04:53:18.655Z,4500
2018-05-31T04:54:20.660Z,4544
2018-05-31T04:55:24.168Z,4584
2018-05-31T04:56:26.546Z,4620
2018-05-31T04:57:28.550Z,4656
2018-05-31T04:58:30.557Z,4688
2018-05-31T04:59:32.558Z,4712
2018-05-31T05:00:34.562Z,4740
2018-05-31T05:01:36.856Z,4764
2018-05-31T05:02:38.860Z,4804
2018-05-31T05:03:41.152Z,4844
2018-05-31T05:04:43.159Z,4892
2018-05-31T05:05:45.165Z,4924
2018-05-31T05:06:47.169Z,4956
2018-05-31T05:07:49.173Z,4964
2018-05-31T05:08:51.552Z,4992
2018-05-31T05:09:53.562Z,5016
2018-05-31T05:10:55.574Z,5052
2018-05-31T05:11:57.567Z,5076
2018-05-31T05:12:59.585Z,5104
2018-05-31T05:14:01.581Z,5136
2018-05-31T05:15:03.617Z,5168
2018-05-31T05:16:05.588Z,5196
2018-05-31T05:17:07.597Z,5236
2018-05-31T05:18:09.601Z,5276
2018-05-31T05:19:11.604Z,5304
2018-05-31T05:20:13.595Z,5336
2018-05-31T05:21:15.591Z,5364
2018-05-31T05:22:17.615Z,5400
2018-05-31T05:23:19.611Z,5424
2018-05-31T05:24:21.610Z,5440
2018-05-31T05:25:23.617Z,5480
2018-05-31T05:26:25.620Z,5520
2018-05-31T05:27:27.614Z,5560
2018-05-31T05:28:29.617Z,5596
2018-05-31T05:29:31.617Z,5620
2018-05-31T05:30:33.633Z,5640
2018-05-31T05:31:35.915Z,5648
2018-05-31T05:32:38.304Z,5664
2018-05-31T05:33:40.310Z,5688
2018-05-31T05:34:42.317Z,5712
2018-05-31T05:35:44.328Z,5752
2018-05-31T05:36:46.334Z,5780
2018-05-31T05:37:48.347Z,5812
2018-05-31T05:38:50.355Z,5840
2018-05-31T05:39:52.362Z,5868
2018-05-31T05:40:55.072Z,5908
2018-05-31T05:41:57.112Z,5952
2018-05-31T05:42:59.126Z,5992
2018-05-31T05:44:01.118Z,6020
2018-05-31T05:45:03.802Z,6048
2018-05-31T05:46:05.824Z,6072
2018-05-31T05:47:07.829Z,6084
2018-05-31T05:48:09.829Z,6096
2018-05-31T05:49:11.836Z,6100
2018-05-31T05:50:13.857Z,6132
2018-05-31T05:51:15.849Z,6132
2018-05-31T05:52:17.854Z,6164
2018-05-31T05:53:19.889Z,6180
2018-05-31T05:54:21.894Z,6208
2018-05-31T05:55:23.902Z,6224
2018-05-31T05:56:25.943Z,6268
2018-05-31T05:57:27.931Z,6316
2018-05-31T05:58:30.229Z,6344
2018-05-31T05:59:32.248Z,6372
2018-05-31T06:00:34.254Z,6392
2018-05-31T06:01:36.258Z,6420
2018-05-31T06:02:38.566Z,6448
2018-05-31T06:03:40.883Z,6492
2018-05-31T06:04:42.886Z,6536
2018-05-31T06:05:44.903Z,6580
2018-05-31T06:06:46.912Z,6612
2018-05-31T06:07:48.918Z,6652
2018-05-31T06:08:51.236Z,6692
2018-05-31T06:09:53.267Z,6728
2018-05-31T06:10:55.252Z,6752
2018-05-31T06:11:57.639Z,6788
2018-05-31T06:12:59.653Z,6836
2018-05-31T06:14:01.664Z,6876
2018-05-31T06:15:03.671Z,6920
2018-05-31T06:16:05.994Z,6952
2018-05-31T06:17:07.998Z,6976
2018-05-31T06:18:10.013Z,6992
2018-05-31T06:19:12.415Z,7004
2018-05-31T06:20:14.412Z,6996
2018-05-31T06:21:16.431Z,7008
2018-05-31T06:22:18.447Z,7004
2018-05-31T06:23:20.457Z,7004
2018-05-31T06:24:22.469Z,7032
2018-05-31T06:25:24.775Z,7040
2018-05-31T06:26:26.970Z,7048
2018-05-31T06:27:28.792Z,7056
2018-05-31T06:28:30.810Z,7072
2018-05-31T06:29:33.105Z,7084
2018-05-31T06:30:35.112Z,7100
2018-05-31T06:31:37.122Z,7124
2018-05-31T06:32:39.890Z,7148
2018-05-31T06:33:42.535Z,7172
2018-05-31T06:34:44.545Z,7184
2018-05-31T06:35:46.545Z,7196
2018-05-31T06:36:48.830Z,7216
2018-05-31T06:37:50.838Z,7244
2018-05-31T06:38:52.841Z,7276
2018-05-31T06:39:54.842Z,7288
2018-05-31T06:40:56.849Z,7300
2018-05-31T06:41:58.860Z,7304
2018-05-31T06:43:00.947Z,7300
2018-05-31T06:44:03.293Z,7308
2018-05-31T06:45:05.285Z,7312
2018-05-31T06:46:07.295Z,7324
2018-05-31T06:47:09.303Z,7352
2018-05-31T06:48:11.620Z,7392
2018-05-31T06:49:13.635Z,7440
2018-05-31T06:50:15.642Z,7460
2018-05-31T06:51:17.652Z,7492
2018-05-31T06:52:19.651Z,7504
2018-05-31T06:53:22.051Z,7524
2018-05-31T06:54:24.512Z,7524
2018-05-31T06:55:26.467Z,7528
2018-05-31T06:56:28.745Z,7540
2018-05-31T06:57:30.767Z,7540
2018-05-31T06:58:32.775Z,7544
2018-05-31T06:59:34.787Z,7564
2018-05-31T07:00:36.795Z,7604
2018-05-31T07:01:38.806Z,7668
2018-05-31T07:02:40.814Z,7732
2018-05-31T07:03:42.819Z,7788
2018-05-31T07:04:44.824Z,7832
2018-05-31T07:05:46.843Z,7860
2018-05-31T07:06:49.153Z,7900
2018-05-31T07:07:51.428Z,7932
2018-05-31T07:08:53.442Z,7988
2018-05-31T07:09:55.446Z,8040
2018-05-31T07:10:57.453Z,8060
2018-05-31T07:11:59.465Z,8048
2018-05-31T07:13:01.474Z,8060
2018-05-31T07:14:03.492Z,8084
2018-05-31T07:15:05.490Z,8124
2018-05-31T07:16:07.800Z,8144
2018-05-31T07:17:09.808Z,8168
2018-05-31T07:18:11.809Z,8172
2018-05-31T07:19:14.108Z,8216
2018-05-31T07:20:16.118Z,8240
2018-05-31T07:21:18.413Z,8280
2018-05-31T07:22:21.080Z,8316
2018-05-31T07:23:23.474Z,8304
2018-05-31T07:24:25.490Z,8328
2018-05-31T07:25:27.484Z,8376
2018-05-31T07:26:29.492Z,8428
2018-05-31T07:27:32.092Z,8484
2018-05-31T07:28:34.095Z,8516
2018-05-31T07:29:36.103Z,8508
2018-05-31T07:30:38.121Z,8508
2018-05-31T07:31:40.131Z,8532
2018-05-31T07:32:42.531Z,8560
2018-05-31T07:33:44.834Z,8616
2018-05-31T07:34:46.838Z,8648
2018-05-31T07:35:48.840Z,8680
2018-05-31T07:36:50.850Z,8708
2018-05-31T07:37:52.861Z,8728
2018-05-31T07:38:54.869Z,8764
2018-05-31T07:39:57.268Z,8796
2018-05-31T07:40:59.655Z,8852
2018-05-31T07:42:01.947Z,8916
2018-05-31T07:43:03.968Z,8960
2018-05-31T07:44:05.974Z,9004
2018-05-31T07:45:07.987Z,9080
2018-05-31T07:46:09.993Z,9176
2018-05-31T07:47:12.006Z,9256
2018-05-31T07:48:14.017Z,9336
2018-05-31T07:49:16.413Z,9416
2018-05-31T07:50:18.439Z,9496
2018-05-31T07:51:20.798Z,9532
2018-05-31T07:52:22.744Z,9572
2018-05-31T07:53:25.035Z,9632
2018-05-31T07:54:27.048Z,9684
2018-05-31T07:55:29.064Z,9744
2018-05-31T07:56:31.362Z,9788
2018-05-31T07:57:33.367Z,9836
2018-05-31T07:58:35.381Z,9872
2018-05-31T07:59:38.052Z,9872
2018-05-31T08:00:40.073Z,9896
2018-05-31T08:01:42.092Z,9940
2018-05-31T08:02:44.391Z,9968
2018-05-31T08:03:46.400Z,9956
2018-05-31T08:04:48.411Z,9972
2018-05-31T08:05:50.421Z,10000
2018-05-31T08:06:52.723Z,10040
2018-05-31T08:07:55.127Z,10108
2018-05-31T08:08:57.446Z,10184
2018-05-31T08:09:59.452Z,10292
2018-05-31T08:11:01.467Z,10428
2018-05-31T08:12:03.767Z,10500
2018-05-31T08:13:05.764Z,10560
2018-05-31T08:14:07.773Z,10604
2018-05-31T08:15:10.381Z,10652
2018-05-31T08:16:12.388Z,10708
2018-05-31T08:17:14.408Z,10788
2018-05-31T08:18:16.422Z,10912
2018-05-31T08:19:18.435Z,11020
2018-05-31T08:20:20.455Z,11104
2018-05-31T08:21:22.456Z,11156
2018-05-31T08:22:24.865Z,11244
2018-05-31T08:23:26.876Z,11336
2018-05-31T08:24:28.884Z,11640
2018-05-31T08:25:30.896Z,20736
2018-05-31T08:26:33.202Z,32608
2018-05-31T08:27:35.498Z,31552
2018-05-31T08:28:37.514Z,36640
2018-05-31T08:29:39.514Z,32000
2018-05-31T08:30:41.527Z,36192
2018-05-31T08:31:43.616Z,30880
2018-05-31T08:32:46.031Z,36928
2018-05-31T08:33:48.037Z,32800
2018-05-31T08:34:50.052Z,26976
2018-05-31T08:35:52.064Z,20416
2018-05-31T08:36:54.080Z,21024
2018-05-31T08:37:56.100Z,25440
2018-05-31T08:38:58.109Z,48608
2018-05-31T08:40:00.420Z,88320
2018-05-31T08:41:02.430Z,95488
2018-05-31T08:42:04.482Z,96448
2018-05-31T08:43:06.535Z,99168
2018-05-31T08:44:08.645Z,100000
2018-05-31T08:45:10.659Z,99008
2018-05-31T08:46:12.728Z,96480
2018-05-31T08:47:15.078Z,96128
2018-05-31T08:48:17.138Z,99072
2018-05-31T08:49:19.219Z,108800
2018-05-31T08:50:21.270Z,104864
2018-05-31T08:51:23.325Z,88992
2018-05-31T08:52:25.383Z,84832
2018-05-31T08:53:27.444Z,92128
2018-05-31T08:54:29.505Z,89600
2018-05-31T08:55:31.564Z,85024
2018-05-31T08:56:33.997Z,87392
2018-05-31T08:57:36.063Z,88928
2018-05-31T08:58:38.110Z,86880
2018-05-31T08:59:40.175Z,85152
2018-05-31T09:00:42.229Z,86208
2018-05-31T09:01:44.290Z,77504
2018-05-31T09:02:46.640Z,67392
2018-05-31T09:03:48.696Z,69408
2018-05-31T09:04:50.825Z,77856
2018-05-31T09:05:53.197Z,84864
2018-05-31T09:06:55.819Z,83968
2018-05-31T09:07:57.883Z,87456
2018-05-31T09:08:59.942Z,91744
2018-05-31T09:10:02.009Z,82016
2018-05-31T09:11:04.071Z,80064
2018-05-31T09:12:06.109Z,84096
2018-05-31T09:13:08.167Z,79968
2018-05-31T09:14:10.225Z,79808
2018-05-31T09:15:12.331Z,86400
2018-05-31T09:16:14.699Z,90848
2018-05-31T09:17:17.370Z,96288
2018-05-31T09:18:19.427Z,97888
2018-05-31T09:19:21.471Z,95776
2018-05-31T09:20:23.526Z,95392
2018-05-31T09:21:25.592Z,96864
2018-05-31T09:22:27.648Z,99328
2018-05-31T09:23:29.703Z,103552
2018-05-31T09:24:31.770Z,101152
2018-05-31T09:25:33.824Z,97888
2018-05-31T09:26:35.882Z,98304
2018-05-31T09:27:38.219Z,92160
2018-05-31T09:28:40.283Z,89248
2018-05-31T09:29:42.649Z,92096
2018-05-31T09:30:44.697Z,89024
2018-05-31T09:31:46.761Z,87552
2018-05-31T09:32:49.106Z,90336
2018-05-31T09:33:51.558Z,90880
2018-05-31T09:34:53.614Z,100064
2018-05-31T09:35:55.672Z,102368
2018-05-31T09:36:57.738Z,99040
2018-05-31T09:38:00.364Z,97408
2018-05-31T09:39:02.751Z,97056
2018-05-31T09:40:04.871Z,102720
2018-05-31T09:41:06.982Z,102848
2018-05-31T09:42:08.981Z,98496
2018-05-31T09:43:11.329Z,103968
2018-05-31T09:44:13.392Z,108384
2018-05-31T09:45:15.460Z,107104
2018-05-31T09:46:17.529Z,113248
2018-05-31T09:47:19.974Z,112960
2018-05-31T09:48:22.040Z,112256
2018-05-31T09:49:24.584Z,113952
2018-05-31T09:50:27.019Z,113024
2018-05-31T09:51:29.804Z,110784
2018-05-31T09:52:32.169Z,112672
2018-05-31T09:53:34.280Z,113632
2018-05-31T09:54:36.348Z,115296
2018-05-31T09:55:38.506Z,116000
2018-05-31T09:56:41.468Z,102848
2018-05-31T09:57:43.862Z,101312
2018-05-31T09:58:45.986Z,106784
2018-05-31T09:59:48.922Z,106656
2018-05-31T10:00:51.305Z,107616
2018-05-31T10:01:53.357Z,107040
2018-05-31T10:02:55.741Z,104192
2018-05-31T10:03:57.872Z,104032
2018-05-31T10:04:59.926Z,100448
2018-05-31T10:06:01.994Z,94016
2018-05-31T10:07:04.064Z,97280
2018-05-31T10:08:06.129Z,100704
2018-05-31T10:09:08.190Z,101536
2018-05-31T10:10:10.242Z,105152
2018-05-31T10:11:12.320Z,107104
2018-05-31T10:12:14.379Z,103264
2018-05-31T10:13:16.723Z,115168
2018-05-31T10:14:19.114Z,126112
2018-05-31T10:15:21.296Z,114432
2018-05-31T10:16:23.401Z,108480
2018-05-31T10:17:25.519Z,120704
2018-05-31T10:18:27.629Z,126048
2018-05-31T10:19:29.736Z,120960
2018-05-31T10:20:31.817Z,29344
2018-05-31T10:21:33.929Z,28576
2018-05-31T10:22:37.049Z,27072
2018-05-31T10:23:39.222Z,27744
2018-05-31T10:24:41.393Z,32768
2018-05-31T10:25:43.497Z,104896
2018-05-31T10:26:45.632Z,110272
2018-05-31T10:27:47.993Z,115744
2018-05-31T10:28:50.070Z,109472
2018-05-31T10:29:52.786Z,111456
2018-05-31T10:30:54.852Z,112832
2018-05-31T10:31:56.916Z,107712
2018-05-31T10:32:58.983Z,105280
2018-05-31T10:34:01.440Z,108576
2018-05-31T10:35:03.509Z,104480
2018-05-31T10:36:05.583Z,99872
2018-05-31T10:37:08.016Z,106368
2018-05-31T10:38:10.086Z,113760
2018-05-31T10:39:12.170Z,107552
2018-05-31T10:40:14.516Z,102752
2018-05-31T10:41:16.969Z,110432
2018-05-31T10:42:19.036Z,124032
2018-05-31T10:43:21.107Z,123296
2018-05-31T10:44:23.887Z,117888
2018-05-31T10:45:25.958Z,120672
2018-05-31T10:46:29.908Z,125472
2018-05-31T10:47:33.299Z,123840
2018-05-31T10:48:36.550Z,118592
2018-05-31T10:49:38.608Z,117472
2018-05-31T10:50:40.668Z,103744
2018-05-31T10:51:42.754Z,111616
2018-05-31T10:52:45.125Z,115168
2018-05-31T10:53:47.208Z,124544
2018-05-31T10:54:49.284Z,133056
2018-05-31T10:55:51.551Z,125056
2018-05-31T10:56:53.617Z,120064
2018-05-31T10:57:55.707Z,123072
2018-05-31T10:58:57.795Z,125408
2018-05-31T11:00:00.155Z,125024
2018-05-31T11:01:02.213Z,124576
2018-05-31T11:02:04.281Z,25120
2018-05-31T11:03:06.348Z,24000
2018-05-31T11:04:08.657Z,25472
2018-05-31T11:05:10.677Z,29344
2018-05-31T11:06:12.704Z,29920
2018-05-31T11:07:14.738Z,60128
2018-05-31T11:08:16.763Z,33792
2018-05-31T11:09:18.789Z,30848
2018-05-31T11:10:20.827Z,125408
2018-05-31T11:11:22.849Z,136384
2018-05-31T11:12:24.889Z,133952
2018-05-31T11:13:26.902Z,128096
2018-05-31T11:14:28.936Z,123648
2018-05-31T11:15:30.956Z,126944
2018-05-31T11:16:32.979Z,134464
2018-05-31T11:17:35.405Z,30208
2018-05-31T11:18:37.427Z,42496
2018-05-31T11:19:39.445Z,131392
2018-05-31T11:20:41.477Z,29504
2018-05-31T11:21:43.594Z,25344
2018-05-31T11:22:45.920Z,24512
2018-05-31T11:23:47.949Z,26720
2018-05-31T11:24:50.363Z,36160
2018-05-31T11:25:52.394Z,28832
2018-05-31T11:26:54.418Z,35648
2018-05-31T11:27:56.455Z,130048
2018-05-31T11:28:58.479Z,136704
2018-05-31T11:30:00.509Z,105440
2018-05-31T11:31:02.532Z,39200
2018-05-31T11:32:04.569Z,28224
2018-05-31T11:33:06.905Z,24672
2018-05-31T11:34:09.225Z,23392
2018-05-31T11:35:11.245Z,21984
2018-05-31T11:36:13.274Z,27744
2018-05-31T11:37:15.294Z,22784
2018-05-31T11:38:17.326Z,22880
2018-05-31T11:39:19.343Z,23328
2018-05-31T11:40:21.662Z,23840
2018-05-31T11:41:24.627Z,27392
2018-05-31T11:42:26.658Z,120064
2018-05-31T11:43:29.537Z,114752
2018-05-31T11:44:31.563Z,116384
2018-05-31T11:45:33.587Z,47328
2018-05-31T11:46:35.609Z,124768
2018-05-31T11:47:37.628Z,40480
2018-05-31T11:48:39.645Z,40896
2018-05-31T11:49:41.671Z,100224
2018-05-31T11:50:43.688Z,120384
2018-05-31T11:51:45.705Z,127264
2018-05-31T11:52:48.115Z,130304
2018-05-31T11:53:50.135Z,138880
2018-05-31T11:54:52.155Z,143616
2018-05-31T11:55:54.187Z,29184
2018-05-31T11:56:56.207Z,128992
2018-05-31T11:57:58.244Z,117920
2018-05-31T11:59:00.560Z,123136
2018-05-31T12:00:02.586Z,129408
2018-05-31T12:01:04.607Z,128032
2018-05-31T12:02:07.019Z,128448
2018-05-31T12:03:09.043Z,138080
2018-05-31T12:04:11.062Z,136864
2018-05-31T12:05:13.101Z,130048
2018-05-31T12:06:15.125Z,125120
2018-05-31T12:07:17.136Z,117536
2018-05-31T12:08:19.174Z,53408
2018-05-31T12:09:21.184Z,66656
2018-05-31T12:10:23.208Z,118272
2018-05-31T12:11:25.227Z,128480
2018-05-31T12:12:27.547Z,66496
2018-05-31T12:13:29.571Z,70016
2018-05-31T12:14:31.970Z,28800
2018-05-31T12:15:34.004Z,24832
2018-05-31T12:16:36.027Z,25536
2018-05-31T12:17:38.139Z,119072
2018-05-31T12:18:40.076Z,125024
2018-05-31T12:19:42.088Z,122848
2018-05-31T12:20:44.113Z,114272
2018-05-31T12:21:46.132Z,86400
2018-05-31T12:22:48.155Z,30080
2018-05-31T12:23:50.464Z,122080
2018-05-31T12:24:52.492Z,114400
2018-05-31T12:25:54.516Z,111136
2018-05-31T12:26:56.552Z,108256
2018-05-31T12:27:58.570Z,97920
2018-05-31T12:29:00.983Z,96352
2018-05-31T12:30:03.002Z,104928
2018-05-31T12:31:05.325Z,22496
2018-05-31T12:32:07.380Z,22400
2018-05-31T12:33:09.363Z,22592
2018-05-31T12:34:11.677Z,25184
2018-05-31T12:35:13.696Z,27840
2018-05-31T12:36:16.011Z,91072
2018-05-31T12:37:18.025Z,109024
2018-05-31T12:38:20.061Z,115488
2018-05-31T12:39:22.095Z,113408
2018-05-31T12:40:24.108Z,106272
2018-05-31T12:41:26.136Z,96576
2018-05-31T12:42:28.165Z,92192
2018-05-31T12:43:30.191Z,94112
2018-05-31T12:44:32.217Z,100224
2018-05-31T12:45:34.232Z,104096
2018-05-31T12:46:36.272Z,107552
2018-05-31T12:47:38.279Z,112128
2018-05-31T12:48:40.690Z,110208
2018-05-31T12:49:43.100Z,107424
2018-05-31T12:50:45.120Z,36512
2018-05-31T12:51:47.145Z,30976
2018-05-31T12:52:49.175Z,29376
2018-05-31T12:53:51.189Z,82400
2018-05-31T12:54:53.616Z,24384
2018-05-31T12:55:55.918Z,24448
2018-05-31T12:56:57.926Z,28128
2018-05-31T12:57:59.950Z,103520
2018-05-31T12:59:01.981Z,104608
2018-05-31T13:00:04.299Z,102048
2018-05-31T13:01:06.318Z,94944
2018-05-31T13:02:08.350Z,92864
2018-05-31T13:03:10.671Z,88960
2018-05-31T13:04:12.709Z,30400
2018-05-31T13:05:14.726Z,37856
2018-05-31T13:06:16.761Z,103264
2018-05-31T13:07:18.781Z,91104
2018-05-31T13:08:20.809Z,93888
2018-05-31T13:09:22.835Z,91456
2018-05-31T13:10:24.865Z,86048
2018-05-31T13:11:26.896Z,86016
2018-05-31T13:12:28.914Z,79488
2018-05-31T13:13:31.261Z,86272
2018-05-31T13:14:33.631Z,93856
2018-05-31T13:15:35.952Z,93760
2018-05-31T13:16:38.269Z,86944
2018-05-31T13:17:40.289Z,83008
2018-05-31T13:18:42.316Z,83232
2018-05-31T13:19:44.650Z,84256
2018-05-31T13:20:46.667Z,89920
2018-05-31T13:21:48.701Z,94400
2018-05-31T13:22:50.724Z,93632
2018-05-31T13:23:52.750Z,91584
2018-05-31T13:24:54.774Z,91936
2018-05-31T13:25:56.800Z,95648
2018-05-31T13:26:58.835Z,93632
2018-05-31T13:28:01.125Z,95840
2018-05-31T13:29:03.158Z,99648
2018-05-31T13:30:05.196Z,103264
2018-05-31T13:31:07.229Z,103840
2018-05-31T13:32:09.250Z,98624
2018-05-31T13:33:11.661Z,94976
2018-05-31T13:34:13.694Z,97984
2018-05-31T13:35:15.722Z,97984
2018-05-31T13:36:17.752Z,98176
2018-05-31T13:37:19.779Z,81632
2018-05-31T13:38:21.801Z,25248
2018-05-31T13:39:23.849Z,26080
2018-05-31T13:40:26.191Z,56704
2018-05-31T13:41:28.215Z,86240
2018-05-31T13:42:30.249Z,56128
2018-05-31T13:43:32.289Z,91648
2018-05-31T13:44:34.320Z,91040
2018-05-31T13:45:36.372Z,84672
2018-05-31T13:46:38.710Z,83712